ESB weather

Esenboğa International Airport
Ankara, Ankara Province, Turkey

Public forecast

Using degrees Celsius for public forecast. Weather courtesy of forecast.io.

Current aviation weather report (METAR) for Esenboğa International Airport

Retrieved 2019/10/16 19:20 UTC (0 seconds ago):

LTAC 161920Z 06002KT CAVOK 14/05 Q1020 NOSIG RMK RWY21L 07005KT RWY03L 05002KT RWY21R 03002KT

Aviation forecast (TAF) for Esenboğa International Airport

Retrieved 2019/10/16 18:03 UTC (1 hour ago):

TAF TAF LTAC 161640Z 1618/1718 VRB02KT 9999 SCT040 TEMPO 1700/1704 -SHRA FEW025CB BKN030 TEMPO 1709/1713 22012KT -TSRA FEW025CB BKN030